createdAt,value
2022-10-19T00:01:07.339Z,3.58
2022-10-19T00:03:36.514Z,3.78
2022-10-19T00:06:18.848Z,3.75
2022-10-19T00:08:46.389Z,3.67
2022-10-19T00:11:14.014Z,4.20
2022-10-19T00:13:41.548Z,3.90
2022-10-19T00:16:14.436Z,3.92
2022-10-19T00:18:46.022Z,3.78
2022-10-19T00:21:16.289Z,3.55
2022-10-19T00:23:44.283Z,3.83
2022-10-19T00:26:13.123Z,2.78
2022-10-19T00:28:43.032Z,3.65
2022-10-19T00:31:16.671Z,3.67
2022-10-19T00:33:46.766Z,3.83
2022-10-19T00:36:32.349Z,4.05
2022-10-19T00:39:00.377Z,3.63
2022-10-19T00:41:31.163Z,3.58
2022-10-19T00:44:04.851Z,3.70
2022-10-19T00:46:35.826Z,3.85
2022-10-19T00:49:17.600Z,4.20
2022-10-19T00:51:49.215Z,3.70
2022-10-19T00:54:18.169Z,3.38
2022-10-19T00:56:49.576Z,3.92
2022-10-19T00:59:20.090Z,3.97
2022-10-19T01:01:48.942Z,4.20
2022-10-19T01:04:16.850Z,4.25
2022-10-19T01:06:44.372Z,4.28
2022-10-19T01:09:11.924Z,3.75
2022-10-19T01:12:00.459Z,4.03
2022-10-19T01:14:44.630Z,4.28
2022-10-19T01:17:42.482Z,3.92
2022-10-19T01:23:04.981Z,4.00
2022-10-19T01:26:16.723Z,4.40
2022-10-19T01:28:59.622Z,4.30
2022-10-19T01:31:46.980Z,3.92
2022-10-19T01:34:25.269Z,3.70
2022-10-19T01:37:10.937Z,3.55
2022-10-19T01:39:50.080Z,4.15
2022-10-19T01:42:23.189Z,4.13
2022-10-19T01:45:02.328Z,3.92
2022-10-19T01:47:57.478Z,4.32
2022-10-19T01:50:36.095Z,3.60
2022-10-19T01:53:07.279Z,4.22
2022-10-19T01:55:37.562Z,4.07
2022-10-19T01:58:09.775Z,4.40
2022-10-19T02:00:41.296Z,3.80
2022-10-19T02:03:10.199Z,4.22
2022-10-19T02:05:38.961Z,3.80
2022-10-19T02:08:17.105Z,3.85
2022-10-19T02:13:15.410Z,3.67
2022-10-19T02:15:47.391Z,3.55
2022-10-19T02:18:19.787Z,3.30
2022-10-19T02:20:47.553Z,3.80
2022-10-19T02:23:17.335Z,3.70
2022-10-19T02:25:45.042Z,3.50
2022-10-19T02:28:13.092Z,3.45
2022-10-19T02:30:42.361Z,3.47
2022-10-19T02:33:12.305Z,4.05
2022-10-19T02:35:40.235Z,3.40
2022-10-19T02:38:10.289Z,3.00
2022-10-19T02:40:42.024Z,3.40
2022-10-19T02:43:17.819Z,3.80
2022-10-19T02:45:56.978Z,3.25
2022-10-19T02:48:27.026Z,3.20
2022-10-19T02:50:54.501Z,2.60
2022-10-19T02:53:21.975Z,3.30
2022-10-19T02:55:50.571Z,3.50
2022-10-19T02:58:18.127Z,3.40
2022-10-19T03:00:45.687Z,3.95
2022-10-19T03:03:13.213Z,3.60
2022-10-19T03:05:40.769Z,3.67
2022-10-19T03:08:08.313Z,3.65
2022-10-19T03:10:35.812Z,3.50
2022-10-19T03:13:03.315Z,4.07
2022-10-19T03:15:31.135Z,4.25
2022-10-19T03:17:58.647Z,3.97
2022-10-19T03:20:26.225Z,4.32
2022-10-19T03:25:26.125Z,3.55
2022-10-19T03:27:54.054Z,4.25
2022-10-19T03:30:21.528Z,4.30
2022-10-19T03:32:49.087Z,4.30
2022-10-19T03:35:16.607Z,3.58
2022-10-19T03:37:44.106Z,4.80
2022-10-19T03:40:11.549Z,4.43
2022-10-19T03:42:39.055Z,4.43
2022-10-19T03:45:07.130Z,4.47
2022-10-19T03:47:34.926Z,4.10
2022-10-19T03:50:02.808Z,4.18
2022-10-19T03:52:30.362Z,3.80
2022-10-19T03:54:57.837Z,4.22
2022-10-19T03:57:25.297Z,3.95
2022-10-19T03:59:52.727Z,4.63
2022-10-19T04:02:20.244Z,4.20
2022-10-19T04:04:47.755Z,4.90
2022-10-19T04:07:15.202Z,4.05
2022-10-19T04:09:42.708Z,4.25
2022-10-19T04:12:10.162Z,4.25
2022-10-19T04:14:55.850Z,4.70
2022-10-19T04:17:25.745Z,4.72
2022-10-19T04:22:20.701Z,5.32
2022-10-19T04:24:48.217Z,4.25
2022-10-19T04:27:15.661Z,4.75
2022-10-19T04:29:43.143Z,5.88
2022-10-19T04:32:10.709Z,4.70
2022-10-19T04:34:39.988Z,5.35
2022-10-19T04:37:10.439Z,5.18
2022-10-19T04:39:40.862Z,5.63
2022-10-19T04:42:08.370Z,6.03
2022-10-19T04:44:35.765Z,5.70
2022-10-19T04:47:03.297Z,6.50
2022-10-19T04:49:31.114Z,5.75
2022-10-19T04:51:58.669Z,6.15
2022-10-19T04:54:26.164Z,6.57
2022-10-19T04:56:53.985Z,6.57
2022-10-19T04:59:21.498Z,6.88
2022-10-19T05:01:48.957Z,6.57
2022-10-19T05:04:16.481Z,6.78
2022-10-19T05:06:43.970Z,6.93
2022-10-19T05:09:11.674Z,7.75
2022-10-19T05:11:39.202Z,7.43
2022-10-19T05:14:06.833Z,8.57
2022-10-19T05:16:34.355Z,8.63
2022-10-19T05:19:02.042Z,8.35
2022-10-19T05:21:29.623Z,8.38
2022-10-19T05:23:58.076Z,8.25
2022-10-19T05:26:27.320Z,8.60
2022-10-19T05:28:59.216Z,8.90
2022-10-19T05:31:29.292Z,9.10
2022-10-19T05:33:57.526Z,9.10
2022-10-19T05:38:57.862Z,9.10
2022-10-19T05:41:26.566Z,9.50
2022-10-19T05:43:56.562Z,10.52
2022-10-19T05:46:25.471Z,10.50
2022-10-19T05:48:53.057Z,11.48
2022-10-19T05:51:21.502Z,10.38
2022-10-19T05:53:49.368Z,10.65
2022-10-19T05:56:19.739Z,10.35
2022-10-19T05:58:47.699Z,9.77
2022-10-19T06:01:15.936Z,9.95
2022-10-19T06:06:11.501Z,10.15
2022-10-19T06:11:11.862Z,9.52
2022-10-19T06:13:40.607Z,10.35
2022-10-19T06:16:09.248Z,11.15
2022-10-19T06:18:37.713Z,11.13
2022-10-19T06:21:08.461Z,11.32
2022-10-19T06:23:36.839Z,11.35
2022-10-19T06:28:33.081Z,11.38
2022-10-19T06:31:00.930Z,11.40
2022-10-19T06:33:30.048Z,12.27
2022-10-19T06:36:08.620Z,11.27
2022-10-19T06:38:36.710Z,11.73
2022-10-19T06:41:04.883Z,11.85
2022-10-19T06:46:20.362Z,12.50
2022-10-19T06:51:19.436Z,11.90
2022-10-19T06:53:47.206Z,11.98
2022-10-19T06:56:14.805Z,11.60
2022-10-19T06:58:42.478Z,11.75
2022-10-19T07:01:11.889Z,10.48
2022-10-19T07:03:39.923Z,10.13
2022-10-19T07:06:11.227Z,9.63
2022-10-19T07:08:40.156Z,9.48
2022-10-19T07:11:12.980Z,8.93
2022-10-19T07:13:40.680Z,7.78
2022-10-19T07:16:19.820Z,8.88
2022-10-19T07:18:56.152Z,7.63
2022-10-19T07:21:23.968Z,7.40
2022-10-19T07:23:51.997Z,7.10
2022-10-19T07:26:26.966Z,7.38
2022-10-19T07:28:56.882Z,6.45
2022-10-19T07:31:25.817Z,6.82
2022-10-19T07:34:01.777Z,6.53
2022-10-19T07:36:31.615Z,6.20
2022-10-19T07:39:00.556Z,5.85
2022-10-19T07:41:28.266Z,6.18
2022-10-19T07:43:57.687Z,6.25
2022-10-19T07:46:29.195Z,6.10
2022-10-19T07:48:56.767Z,5.80
2022-10-19T07:51:24.234Z,5.93
2022-10-19T07:53:52.657Z,6.15
2022-10-19T07:58:53.676Z,5.78
2022-10-19T08:01:23.825Z,5.13
2022-10-19T08:06:45.315Z,5.95
2022-10-19T08:09:39.959Z,6.28
2022-10-19T08:12:05.904Z,5.63
2022-10-19T08:14:34.732Z,6.63
2022-10-19T08:17:02.677Z,5.97
2022-10-19T08:19:30.158Z,5.30
2022-10-19T08:21:58.034Z,5.68
2022-10-19T08:24:25.516Z,6.75
2022-10-19T08:26:52.978Z,6.57
2022-10-19T08:29:21.695Z,6.25
2022-10-19T08:31:50.151Z,5.40
2022-10-19T08:34:17.897Z,5.85
2022-10-19T08:36:45.874Z,6.78
2022-10-19T08:39:14.503Z,6.07
2022-10-19T08:41:45.036Z,5.72
2022-10-19T08:44:35.351Z,6.18
2022-10-19T08:47:35.635Z,6.03
2022-10-19T08:50:09.297Z,6.03
2022-10-19T08:52:38.883Z,5.40
2022-10-19T08:55:25.928Z,5.22
2022-10-19T08:58:12.508Z,6.47
2022-10-19T09:01:00.337Z,6.38
2022-10-19T09:04:00.007Z,5.90
2022-10-19T09:06:37.209Z,6.13
2022-10-19T09:09:05.772Z,5.93
2022-10-19T09:11:38.935Z,5.90
2022-10-19T09:14:22.769Z,5.85
2022-10-19T09:16:50.508Z,5.82
2022-10-19T09:19:25.613Z,5.47
2022-10-19T09:21:59.584Z,5.78
2022-10-19T09:24:43.370Z,6.05
2022-10-19T09:27:26.134Z,5.68
2022-10-19T09:30:04.831Z,5.55
2022-10-19T09:32:35.939Z,5.13
2022-10-19T09:35:15.424Z,6.20
2022-10-19T09:37:48.887Z,5.95
2022-10-19T09:40:26.267Z,6.20
2022-10-19T09:42:58.210Z,6.25
2022-10-19T09:46:11.616Z,5.10
2022-10-19T09:48:52.623Z,5.90
2022-10-19T09:51:23.711Z,6.18
2022-10-19T09:53:53.183Z,5.75
2022-10-19T09:56:24.179Z,6.50
2022-10-19T09:58:54.558Z,6.30
2022-10-19T10:01:41.704Z,6.13
2022-10-19T10:04:15.846Z,6.18
2022-10-19T10:06:44.478Z,6.15
2022-10-19T10:09:17.576Z,5.97
2022-10-19T10:11:48.641Z,6.18
2022-10-19T10:14:32.549Z,6.07
2022-10-19T10:17:12.527Z,6.28
2022-10-19T10:19:51.856Z,6.47
2022-10-19T10:22:31.680Z,5.80
2022-10-19T10:24:59.975Z,6.50
2022-10-19T10:30:09.620Z,6.18
2022-10-19T10:32:43.306Z,6.05
2022-10-19T10:35:39.774Z,5.63
2022-10-19T10:38:18.123Z,6.43
2022-10-19T10:40:56.603Z,5.93
2022-10-19T10:43:33.654Z,5.50
2022-10-19T10:46:08.435Z,6.50
2022-10-19T10:48:53.566Z,6.18
2022-10-19T10:51:33.368Z,6.15
2022-10-19T10:54:20.736Z,6.68
2022-10-19T10:57:06.926Z,6.10
2022-10-19T10:59:57.117Z,6.10
2022-10-19T11:02:49.247Z,5.90
2022-10-19T11:05:36.172Z,6.20
2022-10-19T11:08:12.612Z,5.78
2022-10-19T11:10:49.068Z,5.43
2022-10-19T11:13:41.411Z,6.20
2022-10-19T11:16:14.919Z,5.70
2022-10-19T11:19:08.830Z,6.35
2022-10-19T11:21:54.837Z,6.10
2022-10-19T11:24:37.509Z,6.10
2022-10-19T11:27:14.202Z,5.70
2022-10-19T11:29:49.891Z,5.80
2022-10-19T11:32:35.611Z,6.25
2022-10-19T11:35:08.524Z,5.20
2022-10-19T11:38:17.368Z,5.65
2022-10-19T11:43:49.939Z,5.82
2022-10-19T11:46:25.853Z,5.13
2022-10-19T11:49:15.139Z,5.65
2022-10-19T11:51:57.655Z,5.35
2022-10-19T11:54:37.177Z,5.57
2022-10-19T11:57:16.751Z,5.03
2022-10-19T11:59:47.267Z,5.72
2022-10-19T12:02:50.167Z,5.63
2022-10-19T12:06:02.887Z,5.55
2022-10-19T12:09:03.991Z,5.88
2022-10-19T12:11:49.295Z,5.57
2022-10-19T12:14:28.584Z,6.03
2022-10-19T12:17:01.381Z,5.85
2022-10-19T12:19:42.365Z,6.15
2022-10-19T12:22:16.249Z,5.80
2022-10-19T12:24:43.914Z,5.80
2022-10-19T12:27:15.086Z,6.05
2022-10-19T12:29:47.718Z,5.65
2022-10-19T12:32:19.350Z,5.75
2022-10-19T12:35:12.486Z,6.05
2022-10-19T12:37:44.028Z,6.22
2022-10-19T12:40:39.944Z,5.55
2022-10-19T12:43:19.684Z,5.85
2022-10-19T12:46:29.216Z,5.63
2022-10-19T12:49:30.502Z,6.10
2022-10-19T12:52:00.392Z,5.78
2022-10-19T12:54:38.139Z,5.85
2022-10-19T12:57:23.353Z,6.07
2022-10-19T13:00:21.770Z,6.03
2022-10-19T13:02:57.131Z,6.05
2022-10-19T13:05:27.743Z,6.20
2022-10-19T13:07:55.518Z,5.30
2022-10-19T13:10:28.209Z,5.80
2022-10-19T13:12:55.943Z,5.38
2022-10-19T13:15:35.640Z,5.70
2022-10-19T13:18:16.159Z,5.78
2022-10-19T13:20:54.240Z,5.65
2022-10-19T13:26:24.388Z,5.13
2022-10-19T13:28:56.239Z,6.45
2022-10-19T13:31:27.964Z,6.07
2022-10-19T13:33:56.678Z,5.70
2022-10-19T13:36:25.435Z,5.65
2022-10-19T13:38:58.551Z,6.20
2022-10-19T13:41:46.696Z,5.80
2022-10-19T13:44:26.716Z,5.78
2022-10-19T13:47:09.309Z,5.35
2022-10-19T13:49:49.234Z,5.90
2022-10-19T13:52:44.214Z,5.53
2022-10-19T13:55:32.914Z,6.20
2022-10-19T13:58:25.132Z,5.97
2022-10-19T14:01:21.857Z,6.18
2022-10-19T14:04:20.766Z,6.03
2022-10-19T14:06:56.028Z,5.80
2022-10-19T14:10:06.500Z,5.70
2022-10-19T14:12:41.676Z,6.15
2022-10-19T14:15:18.335Z,6.03
2022-10-19T14:17:45.779Z,6.65
2022-10-19T14:20:39.746Z,6.65
2022-10-19T14:23:21.264Z,6.72
2022-10-19T14:26:04.770Z,6.78
2022-10-19T14:28:33.829Z,6.50
2022-10-19T14:31:18.108Z,6.53
2022-10-19T14:33:47.741Z,6.75
2022-10-19T14:36:18.646Z,7.00
2022-10-19T14:38:49.034Z,6.85
2022-10-19T14:41:29.550Z,7.35
2022-10-19T14:43:58.408Z,7.15
2022-10-19T14:46:29.868Z,7.32
2022-10-19T14:49:08.407Z,7.57
2022-10-19T14:51:38.736Z,7.57
2022-10-19T14:54:38.924Z,7.35
2022-10-19T14:57:19.938Z,8.02
2022-10-19T14:59:48.831Z,8.60
2022-10-19T15:02:37.283Z,7.85
2022-10-19T15:05:07.006Z,8.52
2022-10-19T15:07:38.458Z,7.82
2022-10-19T15:10:18.744Z,7.90
2022-10-19T15:12:46.777Z,8.70
2022-10-19T15:15:30.652Z,7.57
2022-10-19T15:18:01.354Z,8.85
2022-10-19T15:20:44.097Z,8.13
2022-10-19T15:23:42.834Z,8.32
2022-10-19T15:26:24.699Z,8.73
2022-10-19T15:28:53.583Z,8.07
2022-10-19T15:31:28.961Z,8.07
2022-10-19T15:33:59.555Z,8.07
2022-10-19T15:36:29.735Z,8.90
2022-10-19T15:39:11.821Z,9.35
2022-10-19T15:41:49.609Z,8.77
2022-10-19T15:44:40.617Z,8.63
2022-10-19T15:47:23.746Z,8.55
2022-10-19T15:49:52.689Z,8.43
2022-10-19T15:52:22.684Z,8.18
2022-10-19T15:54:52.150Z,9.10
2022-10-19T15:57:22.298Z,9.23
2022-10-19T15:59:49.899Z,8.77
2022-10-19T16:02:17.472Z,9.00
2022-10-19T16:04:45.014Z,8.15
2022-10-19T16:07:24.701Z,8.77
2022-10-19T16:09:53.191Z,8.63
2022-10-19T16:12:21.626Z,8.63
2022-10-19T16:14:49.193Z,9.15
2022-10-19T16:17:16.904Z,8.93
2022-10-19T16:19:45.753Z,8.95
2022-10-19T16:22:14.598Z,8.65
2022-10-19T16:24:43.029Z,9.23
2022-10-19T16:27:15.055Z,10.07
2022-10-19T16:29:44.601Z,9.35
2022-10-19T16:32:12.099Z,9.27
2022-10-19T16:34:42.165Z,9.70
2022-10-19T16:37:09.624Z,9.98
2022-10-19T16:39:37.114Z,9.18
2022-10-19T16:42:04.622Z,9.13
2022-10-19T16:44:32.690Z,9.68
2022-10-19T16:47:00.500Z,9.30
2022-10-19T16:49:28.047Z,9.82
2022-10-19T16:51:57.414Z,10.40
2022-10-19T16:54:32.829Z,10.20
2022-10-19T16:57:00.293Z,10.35
2022-10-19T16:59:27.767Z,10.27
2022-10-19T17:01:55.560Z,10.15
2022-10-19T17:04:23.137Z,9.85
2022-10-19T17:06:50.680Z,10.40
2022-10-19T17:12:29.276Z,10.43
2022-10-19T17:15:37.247Z,10.65
2022-10-19T17:17:53.628Z,10.68
2022-10-19T17:20:21.139Z,11.43
2022-10-19T17:22:51.860Z,10.57
2022-10-19T17:25:19.400Z,11.50
2022-10-19T17:27:50.874Z,10.93
2022-10-19T17:30:19.035Z,10.05
2022-10-19T17:35:13.863Z,11.38
2022-10-19T17:37:41.415Z,11.38
2022-10-19T17:40:09.658Z,11.60
2022-10-19T17:45:05.272Z,11.27
2022-10-19T17:47:32.867Z,11.90
2022-10-19T17:50:00.561Z,12.00
2022-10-19T17:52:28.136Z,11.40
2022-10-19T17:55:12.641Z,13.30
2022-10-19T17:57:40.835Z,13.45
2022-10-19T18:00:08.776Z,15.05
2022-10-19T18:02:40.612Z,13.35
2022-10-19T18:05:08.599Z,14.27
2022-10-19T18:07:36.604Z,13.95
2022-10-19T18:12:32.165Z,15.25
2022-10-19T18:14:59.706Z,15.02
2022-10-19T18:17:27.885Z,15.77
2022-10-19T18:22:22.800Z,16.42
2022-10-19T18:24:50.249Z,15.75
2022-10-19T18:27:17.652Z,16.05
2022-10-19T18:29:45.096Z,15.75
2022-10-19T18:32:12.536Z,16.53
2022-10-19T18:34:40.058Z,16.35
2022-10-19T18:37:07.559Z,16.27
2022-10-19T18:39:35.073Z,14.93
2022-10-19T18:42:02.582Z,16.38
2022-10-19T18:44:33.519Z,16.58
2022-10-19T18:47:01.268Z,16.85
2022-10-19T18:49:31.785Z,16.08
2022-10-19T18:51:59.646Z,16.77
2022-10-19T18:54:28.084Z,16.27
2022-10-19T18:56:55.953Z,17.55
2022-10-19T18:59:23.751Z,17.58
2022-10-19T19:01:51.537Z,17.98
2022-10-19T19:04:19.087Z,17.77
2022-10-19T19:06:46.569Z,18.48
2022-10-19T19:09:14.155Z,17.95
2022-10-19T19:11:43.836Z,18.52
2022-10-19T19:14:14.182Z,17.98
2022-10-19T19:16:42.777Z,18.95
2022-10-19T19:19:12.111Z,19.60
2022-10-19T19:21:43.570Z,19.05
2022-10-19T19:24:13.663Z,19.85
2022-10-19T19:26:43.420Z,19.08
2022-10-19T19:29:11.154Z,20.98
2022-10-19T19:31:41.122Z,20.60
2022-10-19T19:34:09.467Z,20.75
2022-10-19T19:36:38.483Z,19.90
2022-10-19T19:39:06.031Z,20.08
2022-10-19T19:41:34.203Z,20.52
2022-10-19T19:46:29.404Z,20.85
2022-10-19T19:49:01.444Z,20.73
2022-10-19T19:51:30.765Z,20.35
2022-10-19T19:53:58.879Z,20.33
2022-10-19T19:56:27.257Z,21.70
2022-10-19T20:01:26.713Z,21.20
2022-10-19T20:06:25.127Z,22.52
2022-10-19T20:08:56.371Z,22.25
2022-10-19T20:11:26.394Z,20.17
2022-10-19T20:13:53.943Z,22.23
2022-10-19T20:16:26.733Z,22.73
2022-10-19T20:19:05.784Z,22.52
2022-10-19T20:21:33.715Z,23.63
2022-10-19T20:24:01.363Z,21.27
2022-10-19T20:26:29.634Z,22.33
2022-10-19T20:28:57.826Z,22.45
2022-10-19T20:33:52.880Z,23.30
2022-10-19T20:36:23.633Z,23.30
2022-10-19T20:38:56.518Z,25.27
2022-10-19T20:41:28.646Z,25.60
2022-10-19T20:43:56.494Z,24.67
2022-10-19T20:46:27.909Z,24.33
2022-10-19T20:48:57.973Z,26.38
2022-10-19T20:51:31.608Z,26.75
2022-10-19T20:54:01.810Z,28.55
2022-10-19T20:56:31.698Z,29.27
2022-10-19T20:59:04.484Z,29.83
2022-10-19T21:01:34.281Z,27.30
2022-10-19T21:04:04.664Z,31.48
2022-10-19T21:06:36.940Z,34.22
2022-10-19T21:09:05.088Z,32.72
2022-10-19T21:14:07.552Z,31.95
2022-10-19T21:16:35.569Z,31.45
2022-10-19T21:19:05.184Z,31.33
2022-10-19T21:21:38.594Z,29.77
2022-10-19T21:24:16.128Z,32.22
2022-10-19T21:26:44.224Z,31.10
2022-10-19T21:31:45.119Z,29.75
2022-10-19T21:34:18.562Z,30.55
2022-10-19T21:36:46.507Z,30.58
2022-10-19T21:39:14.322Z,31.33
2022-10-19T21:41:41.804Z,28.52
2022-10-19T21:44:09.359Z,28.65
2022-10-19T21:46:36.817Z,29.88
2022-10-19T21:49:04.325Z,28.58
2022-10-19T21:51:42.273Z,28.02
2022-10-19T21:54:13.754Z,27.35
2022-10-19T21:56:41.398Z,27.52
2022-10-19T21:59:08.940Z,27.33
2022-10-19T22:01:40.132Z,26.60
2022-10-19T22:04:12.715Z,26.23
2022-10-19T22:06:40.734Z,27.88
2022-10-19T22:09:11.675Z,28.05
2022-10-19T22:11:39.230Z,26.65
2022-10-19T22:14:06.687Z,27.73
2022-10-19T22:16:36.801Z,26.50
2022-10-19T22:19:05.852Z,26.05
2022-10-19T22:21:34.627Z,24.42
2022-10-19T22:24:05.466Z,26.15
2022-10-19T22:26:36.450Z,26.60
2022-10-19T22:29:05.584Z,26.52
2022-10-19T22:31:34.436Z,26.45
2022-10-19T22:34:06.846Z,26.67
2022-10-19T22:36:34.772Z,27.10
2022-10-19T22:39:02.521Z,29.27
2022-10-19T22:41:29.947Z,28.70
2022-10-19T22:43:57.409Z,32.20
2022-10-19T22:46:24.913Z,33.63
2022-10-19T22:48:52.467Z,37.25
2022-10-19T22:51:20.028Z,36.97
2022-10-19T22:53:47.514Z,35.70
2022-10-19T22:56:15.063Z,33.95
2022-10-19T22:58:42.463Z,31.02
2022-10-19T23:01:13.132Z,31.60
2022-10-19T23:03:40.785Z,31.77
2022-10-19T23:06:10.474Z,33.28
2022-10-19T23:08:38.321Z,32.92
2022-10-19T23:11:05.898Z,34.53
2022-10-19T23:13:33.559Z,35.97
2022-10-19T23:16:01.565Z,34.38
2022-10-19T23:18:37.519Z,35.33
2022-10-19T23:21:08.069Z,33.90
2022-10-19T23:23:36.895Z,35.28
2022-10-19T23:26:05.744Z,33.38
2022-10-19T23:28:35.241Z,31.27
2022-10-19T23:31:08.939Z,34.25
2022-10-19T23:33:37.255Z,37.33
2022-10-19T23:36:08.181Z,36.97
2022-10-19T23:38:36.236Z,36.10
2022-10-19T23:41:04.206Z,36.83
2022-10-19T23:43:32.175Z,35.67
2022-10-19T23:48:27.470Z,32.05
2022-10-19T23:51:04.083Z,34.45
2022-10-19T23:53:35.746Z,32.97
2022-10-19T23:56:08.738Z,32.40
2022-10-19T23:58:36.234Z,35.03
